Time;durP1;ratioP1;P1;durP2;ratioP2;P2;SDS_P1;SDS_P2;PMS_P1;PMS_P2;Temp;Humidity;BMP_temperature;BMP_pressure;BME280_temperature;BME280_humidity;BME280_pressure;Samples;Min_cycle;Max_cycle;Signal;HPM_P1;HPM_P2
2023/10/19 00:00:21;;;;;;;6.32;1.73;;;20.50;60.00;;;;;;351028;28;1023;-57
2023/10/19 00:00:39;;;;;;;6.40;2.13;;;20.50;60.00;;;;;;350938;28;1150;-57
2023/10/19 00:00:51;;;;;;;5.57;2.10;;;20.50;60.20;;;;;;350984;28;868;-57
2023/10/19 00:01:04;;;;;;;5.85;1.88;;;20.40;60.10;;;;;;350968;28;1138;-58
2023/10/19 00:01:15;;;;;;;5.20;1.60;;;20.30;60.50;;;;;;351042;28;884;-58
2023/10/19 00:01:28;;;;;;;4.18;1.45;;;20.20;60.60;;;;;;351076;28;1012;-57
2023/10/19 00:01:38;;;;;;;4.50;1.52;;;20.30;60.70;;;;;;350892;28;2026;-58
2023/10/19 00:01:49;;;;;;;5.28;1.60;;;20.30;60.70;;;;;;351057;28;1233;-58
2023/10/19 00:02:00;;;;;;;5.05;1.42;;;20.30;60.70;;;;;;351054;28;1082;-57
2023/10/19 00:02:15;;;;;;;4.90;1.40;;;20.30;60.70;;;;;;351041;28;1086;-58
2023/10/19 00:02:26;;;;;;;5.85;1.70;;;20.30;60.80;;;;;;350959;28;1102;-58
2023/10/19 00:02:37;;;;;;;5.88;1.95;;;20.30;60.80;;;;;;350994;28;1126;-58
2023/10/19 00:02:54;;;;;;;6.20;2.27;;;20.30;60.80;;;;;;351056;28;829;-57
2023/10/19 00:03:08;;;;;;;5.60;2.22;;;20.40;60.70;;;;;;351000;28;1381;-58
2023/10/19 00:03:19;;;;;;;4.70;1.80;;;20.40;60.70;;;;;;350959;28;1149;-58
2023/10/19 00:03:30;;;;;;;4.88;1.75;;;20.40;60.70;;;;;;351031;28;1023;-59
2023/10/19 00:03:40;;;;;;;5.43;1.88;;;20.40;60.70;;;;;;351087;28;1862;-58
2023/10/19 00:03:53;;;;;;;5.80;2.03;;;20.40;60.70;;;;;;351039;28;801;-58
2023/10/19 00:04:07;;;;;;;6.20;2.35;;;20.40;60.60;;;;;;350971;28;1043;-58
2023/10/19 00:04:17;;;;;;;6.35;2.25;;;20.40;60.60;;;;;;351032;28;1026;-57
2023/10/19 00:04:32;;;;;;;7.50;2.30;;;20.40;60.50;;;;;;351004;28;1425;-57
2023/10/19 00:04:43;;;;;;;6.40;1.75;;;20.40;60.50;;;;;;351027;28;955;-57
2023/10/19 00:04:54;;;;;;;5.77;1.63;;;20.40;60.50;;;;;;350980;28;1141;-57
2023/10/19 00:05:09;;;;;;;5.35;1.55;;;20.40;60.50;;;;;;351090;28;848;-58
2023/10/19 00:05:20;;;;;;;5.13;1.55;;;20.50;60.50;;;;;;351062;28;940;-58
2023/10/19 00:05:32;;;;;;;5.45;1.60;;;20.50;60.40;;;;;;351091;28;991;-58
2023/10/19 00:05:46;;;;;;;7.15;1.90;;;20.50;60.40;;;;;;350904;28;1350;-58
2023/10/19 00:05:57;;;;;;;7.53;2.03;;;20.50;60.50;;;;;;351055;28;1045;-57
2023/10/19 00:06:10;;;;;;;5.25;1.85;;;20.50;60.60;;;;;;351031;28;805;-57
2023/10/19 00:06:23;;;;;;;5.40;1.90;;;20.40;60.50;;;;;;351009;28;931;-58
2023/10/19 00:06:33;;;;;;;5.40;1.98;;;20.50;60.50;;;;;;350882;28;1138;-57
2023/10/19 00:06:44;;;;;;;6.60;1.90;;;20.50;60.50;;;;;;351025;28;971;-58
2023/10/19 00:06:55;;;;;;;6.28;1.98;;;20.50;60.50;;;;;;351023;28;1130;-58
2023/10/19 00:07:07;;;;;;;6.40;1.98;;;20.50;60.50;;;;;;350992;28;1030;-58
2023/10/19 00:07:18;;;;;;;6.30;2.10;;;20.50;60.50;;;;;;351000;28;1224;-58
2023/10/19 00:07:29;;;;;;;6.68;2.00;;;20.50;60.40;;;;;;351046;28;871;-58
2023/10/19 00:07:40;;;;;;;6.07;1.77;;;20.50;60.40;;;;;;350986;28;935;-57
2023/10/19 00:07:53;;;;;;;5.45;1.45;;;20.50;60.50;;;;;;351052;28;948;-57
2023/10/19 00:08:14;;;;;;;5.75;1.73;;;20.50;60.50;;;;;;351063;28;1145;-57
2023/10/19 00:08:25;;;;;;;6.63;2.17;;;20.50;60.50;;;;;;351037;28;963;-58
2023/10/19 00:08:41;;;;;;;6.35;2.05;;;20.50;60.50;;;;;;351047;28;1098;-58
2023/10/19 00:08:52;;;;;;;6.35;2.10;;;20.50;60.50;;;;;;350879;28;1302;-58
2023/10/19 00:09:03;;;;;;;6.95;1.98;;;20.60;60.50;;;;;;351044;28;1050;-59
2023/10/19 00:09:15;;;;;;;7.35;2.15;;;20.60;60.40;;;;;;351003;28;1201;-57
2023/10/19 00:09:31;;;;;;;6.15;2.28;;;20.60;60.50;;;;;;350939;28;999;-56
2023/10/19 00:09:46;;;;;;;5.93;2.20;;;20.50;60.40;;;;;;351000;28;1011;-58
2023/10/19 00:09:56;;;;;;;6.22;2.08;;;20.50;60.40;;;;;;351062;28;983;-57
2023/10/19 00:10:07;;;;;;;6.57;2.28;;;20.50;60.40;;;;;;350882;28;1500;-57
2023/10/19 00:10:18;;;;;;;6.20;2.30;;;20.50;60.40;;;;;;351027;28;991;-57
2023/10/19 00:10:33;;;;;;;5.22;2.13;;;20.60;60.40;;;;;;351036;28;1070;-57
2023/10/19 00:10:55;;;;;;;6.32;2.08;;;20.60;60.50;;;;;;350883;28;900;-57
2023/10/19 00:11:10;;;;;;;6.75;2.40;;;20.60;60.50;;;;;;350996;28;923;-57
2023/10/19 00:11:26;;;;;;;5.50;2.03;;;20.60;60.50;;;;;;350976;28;1034;-58
2023/10/19 00:11:37;;;;;;;5.55;1.80;;;20.60;60.50;;;;;;350999;28;1142;-57
2023/10/19 00:11:51;;;;;;;5.65;1.83;;;20.60;60.50;;;;;;350971;28;1964;-57
2023/10/19 00:12:03;;;;;;;5.85;1.73;;;20.60;60.40;;;;;;351035;28;1042;-58
2023/10/19 00:12:15;;;;;;;6.28;1.98;;;20.60;60.40;;;;;;350936;28;1193;-57
2023/10/19 00:12:27;;;;;;;6.72;2.17;;;20.60;60.40;;;;;;351051;28;947;-57
2023/10/19 00:12:38;;;;;;;5.80;2.08;;;20.60;60.40;;;;;;350977;28;1063;-58
2023/10/19 00:12:57;;;;;;;7.88;2.05;;;20.60;60.40;;;;;;350974;28;1177;-57
2023/10/19 00:13:08;;;;;;;8.38;1.98;;;20.60;60.40;;;;;;351005;28;1050;-57
2023/10/19 00:13:19;;;;;;;6.82;1.85;;;20.60;60.40;;;;;;351042;28;1221;-58
2023/10/19 00:13:30;;;;;;;5.00;1.67;;;20.60;60.30;;;;;;350939;28;1046;-58
2023/10/19 00:13:43;;;;;;;4.97;1.77;;;20.60;60.40;;;;;;351036;28;1039;-57
2023/10/19 00:13:54;;;;;;;4.85;1.70;;;20.60;60.40;;;;;;350987;28;990;-58
2023/10/19 00:14:11;;;;;;;6.85;1.90;;;20.60;60.40;;;;;;351046;28;1027;-59
2023/10/19 00:14:22;;;;;;;7.20;1.90;;;20.60;60.40;;;;;;350981;28;1326;-57
2023/10/19 00:14:33;;;;;;;5.60;1.90;;;20.60;60.40;;;;;;350994;28;1115;-58
2023/10/19 00:14:43;;;;;;;4.82;1.90;;;20.60;60.50;;;;;;350976;28;1047;-58
2023/10/19 00:14:54;;;;;;;5.50;2.20;;;20.60;60.60;;;;;;350998;28;1149;-59
2023/10/19 00:15:06;;;;;;;6.18;2.20;;;20.60;60.60;;;;;;351023;28;995;-56
2023/10/19 00:15:22;;;;;;;5.45;2.13;;;20.50;60.60;;;;;;351073;28;951;-58
2023/10/19 00:15:37;;;;;;;5.05;1.83;;;20.50;60.50;;;;;;350996;28;1071;-58
2023/10/19 00:15:54;;;;;;;5.53;1.75;;;20.60;60.50;;;;;;350942;28;1011;-56
2023/10/19 00:16:16;;;;;;;5.40;1.88;;;20.60;60.50;;;;;;350930;28;1130;-58
2023/10/19 00:16:30;;;;;;;5.75;1.83;;;20.60;60.50;;;;;;350975;28;1211;-61
2023/10/19 00:16:50;;;;;;;5.20;1.70;;;20.60;60.60;;;;;;350958;28;1308;-58
2023/10/19 00:17:05;;;;;;;6.68;1.70;;;20.60;60.40;;;;;;350995;28;1042;-58
2023/10/19 00:17:20;;;;;;;6.76;1.86;;;20.60;60.30;;;;;;351003;28;1082;-58
2023/10/19 00:17:32;;;;;;;6.00;1.80;;;20.60;60.40;;;;;;351039;28;1105;-58
2023/10/19 00:17:44;;;;;;;6.20;1.67;;;20.60;60.40;;;;;;351017;28;1027;-57
2023/10/19 00:17:56;;;;;;;6.97;1.60;;;20.60;60.30;;;;;;351034;28;1030;-57
2023/10/19 00:18:27;;;;;;;7.03;1.73;;;20.60;60.30;;;;;;350899;28;1023;-58
2023/10/19 00:18:42;;;;;;;7.53;1.85;;;20.50;60.50;;;;;;351057;28;975;-59
2023/10/19 00:18:53;;;;;;;5.93;1.80;;;20.50;60.60;;;;;;351031;28;1817;-57
2023/10/19 00:19:04;;;;;;;5.68;1.52;;;20.50;60.50;;;;;;350951;28;2006;-59
2023/10/19 00:19:19;;;;;;;5.17;1.50;;;20.50;60.60;;;;;;351004;28;882;-59
2023/10/19 00:19:30;;;;;;;4.70;1.52;;;20.50;60.50;;;;;;351073;28;856;-57
2023/10/19 00:20:05;;;;;;;4.30;1.70;;;20.50;60.70;;;;;;351020;28;979;-59
2023/10/19 00:21:19;;;;;;;5.77;1.83;;;20.50;60.80;;;;;;349357;28;1212;-57
2023/10/19 00:21:37;;;;;;;5.45;1.80;;;20.50;60.80;;;;;;349351;28;1883;-58
2023/10/19 00:21:51;;;;;;;6.07;1.98;;;20.50;60.90;;;;;;349439;28;981;-57
2023/10/19 00:22:08;;;;;;;7.70;2.13;;;20.40;60.80;;;;;;349457;28;948;-58
2023/10/19 00:22:21;;;;;;;8.55;2.13;;;20.40;60.80;;;;;;349349;28;1035;-58
2023/10/19 00:22:36;;;;;;;8.40;2.10;;;20.50;60.80;;;;;;349451;28;1965;-58
2023/10/19 00:22:47;;;;;;;7.25;1.88;;;20.40;60.70;;;;;;349463;28;865;-58
2023/10/19 00:22:58;;;;;;;6.38;1.85;;;20.40;60.80;;;;;;349440;28;1111;-58
2023/10/19 00:23:09;;;;;;;7.00;1.90;;;20.40;60.90;;;;;;349404;28;1051;-58
2023/10/19 00:23:33;;;;;;;7.20;1.98;;;20.40;60.90;;;;;;349448;28;1015;-59
2023/10/19 00:23:43;;;;;;;7.38;1.80;;;20.40;60.90;;;;;;349397;28;1087;-57
2023/10/19 00:23:56;;;;;;;7.57;1.70;;;20.40;60.90;;;;;;349448;28;1039;-58
2023/10/19 00:24:09;;;;;;;6.10;1.60;;;20.40;61.00;;;;;;349337;28;1064;-57
2023/10/19 00:24:23;;;;;;;5.30;1.67;;;20.40;60.80;;;;;;349477;28;1182;-57
2023/10/19 00:24:34;;;;;;;6.30;1.83;;;20.50;60.80;;;;;;349436;28;1127;-57
2023/10/19 00:24:45;;;;;;;5.88;1.65;;;20.40;60.80;;;;;;349405;28;964;-58
2023/10/19 00:24:57;;;;;;;5.40;1.50;;;20.40;60.90;;;;;;349386;28;1930;-57
2023/10/19 00:25:13;;;;;;;4.60;1.60;;;20.40;60.90;;;;;;349473;28;1110;-57
2023/10/19 00:25:24;;;;;;;5.05;1.63;;;20.40;60.90;;;;;;349495;28;1111;-57
2023/10/19 00:25:34;;;;;;;4.85;1.48;;;20.40;61.00;;;;;;349411;28;1443;-58
2023/10/19 00:25:50;;;;;;;4.72;1.48;;;20.40;61.10;;;;;;349363;28;1000;-57
2023/10/19 00:26:13;;;;;;;4.72;1.80;;;20.40;61.20;;;;;;349430;28;896;-57
2023/10/19 00:26:25;;;;;;;5.95;1.83;;;20.40;61.10;;;;;;349415;28;995;-57
2023/10/19 00:26:36;;;;;;;6.10;1.80;;;20.40;61.10;;;;;;349374;28;1046;-58
2023/10/19 00:26:48;;;;;;;5.43;1.70;;;20.40;61.20;;;;;;349420;28;1815;-58
2023/10/19 00:27:05;;;;;;;5.95;1.63;;;20.40;61.20;;;;;;349469;28;1877;-58
2023/10/19 00:27:17;;;;;;;6.15;1.50;;;20.40;61.20;;;;;;350986;28;1058;-58
2023/10/19 00:27:28;;;;;;;4.78;1.42;;;20.40;61.20;;;;;;351050;28;926;-57
2023/10/19 00:27:39;;;;;;;4.90;1.50;;;20.40;61.10;;;;;;350973;28;891;-57
2023/10/19 00:27:50;;;;;;;5.75;1.58;;;20.40;61.00;;;;;;350978;28;1086;-58
2023/10/19 00:28:04;;;;;;;7.28;1.85;;;20.40;60.90;;;;;;351030;28;1050;-57
2023/10/19 00:28:17;;;;;;;7.60;2.05;;;20.40;61.00;;;;;;350934;28;1027;-57
2023/10/19 00:28:28;;;;;;;6.50;1.90;;;20.40;61.00;;;;;;351042;28;1049;-59
2023/10/19 00:28:38;;;;;;;6.60;1.70;;;20.40;61.00;;;;;;350890;28;1081;-57
2023/10/19 00:28:53;;;;;;;7.13;1.70;;;20.40;61.00;;;;;;351064;28;1058;-58
2023/10/19 00:29:18;;;;;;;8.13;1.83;;;20.40;61.00;;;;;;350949;28;991;-58
2023/10/19 00:29:32;;;;;;;6.03;1.80;;;20.40;61.10;;;;;;350871;28;1197;-58
2023/10/19 00:29:49;;;;;;;5.50;1.80;;;20.40;61.10;;;;;;350977;28;1206;-58
2023/10/19 00:30:06;;;;;;;6.35;1.70;;;20.40;61.10;;;;;;351305;28;932;-58
2023/10/19 00:30:21;;;;;;;6.82;1.63;;;20.40;61.00;;;;;;351281;28;1141;-58
2023/10/19 00:30:35;;;;;;;6.60;1.63;;;20.40;61.10;;;;;;351245;28;1057;-57
2023/10/19 00:30:49;;;;;;;6.28;1.75;;;20.40;61.20;;;;;;351294;28;1105;-58
2023/10/19 00:31:03;;;;;;;6.55;1.90;;;20.40;61.10;;;;;;351231;28;1041;-59
2023/10/19 00:31:13;;;;;;;6.80;1.80;;;20.40;61.10;;;;;;351297;28;1110;-58
2023/10/19 00:31:28;;;;;;;6.82;1.80;;;20.40;61.10;;;;;;351307;28;817;-58
2023/10/19 00:31:40;;;;;;;6.22;1.75;;;20.40;61.10;;;;;;351257;28;1470;-58
2023/10/19 00:31:51;;;;;;;5.97;1.75;;;20.40;61.10;;;;;;351258;28;1061;-58
2023/10/19 00:32:02;;;;;;;6.80;1.90;;;20.40;61.10;;;;;;351320;28;1063;-58
2023/10/19 00:32:14;;;;;;;6.97;1.90;;;20.30;61.10;;;;;;351281;28;1098;-58
2023/10/19 00:32:29;;;;;;;7.68;1.90;;;20.40;61.10;;;;;;351236;28;964;-58
2023/10/19 00:32:40;;;;;;;8.30;2.03;;;20.30;61.20;;;;;;351206;28;1106;-58
2023/10/19 00:32:52;;;;;;;6.40;1.70;;;20.30;61.30;;;;;;351363;28;1112;-58
2023/10/19 00:33:03;;;;;;;5.85;1.63;;;20.30;61.40;;;;;;351318;28;1193;-57
2023/10/19 00:33:21;;;;;;;5.95;1.75;;;20.30;61.40;;;;;;351281;28;1466;-57
2023/10/19 00:33:32;;;;;;;7.80;2.10;;;20.40;61.30;;;;;;351275;28;1036;-58
2023/10/19 00:33:43;;;;;;;7.13;2.10;;;20.30;61.40;;;;;;351286;28;916;-58
2023/10/19 00:33:54;;;;;;;6.90;2.15;;;20.30;61.50;;;;;;351346;28;940;-57
2023/10/19 00:34:06;;;;;;;6.28;1.95;;;20.30;61.50;;;;;;351342;28;848;-58
2023/10/19 00:34:17;;;;;;;5.75;1.75;;;20.30;61.40;;;;;;351040;28;1256;-57
2023/10/19 00:34:28;;;;;;;6.03;1.85;;;20.30;61.40;;;;;;351259;28;1197;-58
2023/10/19 00:34:39;;;;;;;6.83;1.97;;;20.40;61.40;;;;;;351297;28;1023;-57
2023/10/19 00:34:53;;;;;;;7.88;2.05;;;20.30;61.40;;;;;;351291;28;963;-57
2023/10/19 00:35:18;;;;;;;7.47;2.15;;;20.40;61.50;;;;;;351143;28;1630;-57
2023/10/19 00:35:42;;;;;;;5.07;1.55;;;20.30;61.40;;;;;;351297;28;1105;-56
2023/10/19 00:36:27;;;;;;;5.65;1.60;;;20.30;61.50;;;;;;349683;28;1082;-58
2023/10/19 00:36:38;;;;;;;6.70;2.05;;;20.30;61.50;;;;;;351167;28;993;-57
2023/10/19 00:36:39;;;;;;;6.00;1.75;;;20.30;61.70;;;;;;349904;28;1148;-58
2023/10/19 00:36:51;;;;;;;6.97;1.88;;;20.30;61.60;;;;;;351259;28;915;-58
2023/10/19 00:37:07;;;;;;;7.05;1.83;;;20.20;61.60;;;;;;351245;28;1712;-58
2023/10/19 00:37:25;;;;;;;8.00;1.90;;;20.20;61.70;;;;;;351300;28;1034;-58
2023/10/19 00:37:42;;;;;;;9.70;2.13;;;20.20;61.80;;;;;;351143;28;1689;-58
2023/10/19 00:37:57;;;;;;;8.57;1.90;;;20.20;61.90;;;;;;351218;28;1468;-58
2023/10/19 00:39:01;;;;;;;6.25;1.60;;;20.20;62.10;;;;;;349527;28;1981;-58
2023/10/19 00:39:20;;;;;;;6.43;1.60;;;20.20;62.00;;;;;;349718;28;1144;-57
2023/10/19 00:39:41;;;;;;;6.03;1.83;;;20.20;62.00;;;;;;349710;28;1015;-58
2023/10/19 00:39:54;;;;;;;8.18;1.98;;;20.30;62.00;;;;;;349679;28;980;-58
2023/10/19 00:40:15;;;;;;;8.43;2.00;;;20.20;61.90;;;;;;349707;28;877;-58
2023/10/19 00:40:34;;;;;;;5.93;1.83;;;20.20;62.00;;;;;;349668;28;1116;-58
2023/10/19 00:40:53;;;;;;;7.24;1.98;;;20.30;62.00;;;;;;349659;28;1447;-59
2023/10/19 00:41:37;;;;;;;8.43;2.17;;;20.20;62.00;;;;;;351313;28;995;-58
2023/10/19 00:41:48;;;;;;;7.75;2.08;;;20.30;61.90;;;;;;351168;28;1624;-58
2023/10/19 00:41:59;;;;;;;8.10;1.90;;;20.30;62.00;;;;;;351179;28;1142;-57
2023/10/19 00:42:10;;;;;;;7.30;1.80;;;20.30;62.00;;;;;;351281;28;1023;-58
2023/10/19 00:42:25;;;;;;;7.40;1.90;;;20.30;62.00;;;;;;351284;28;1087;-58
2023/10/19 00:42:40;;;;;;;5.97;1.83;;;20.30;61.90;;;;;;351289;28;964;-57
2023/10/19 00:42:55;;;;;;;7.55;1.98;;;20.30;61.90;;;;;;351206;28;919;-57
2023/10/19 00:43:10;;;;;;;7.53;1.95;;;20.30;61.80;;;;;;351290;28;1894;-58
2023/10/19 00:43:36;;;;;;;6.57;1.80;;;20.30;61.80;;;;;;351294;28;1034;-57
2023/10/19 00:43:49;;;;;;;6.38;1.80;;;20.30;61.80;;;;;;351156;28;1126;-57
2023/10/19 00:44:06;;;;;;;7.65;1.83;;;20.30;61.80;;;;;;351288;28;1357;-57
2023/10/19 00:44:30;;;;;;;7.10;1.67;;;20.30;61.90;;;;;;351370;28;931;-58
2023/10/19 00:44:49;;;;;;;6.97;1.80;;;20.30;61.80;;;;;;351179;28;1126;-57
2023/10/19 00:45:05;;;;;;;6.72;1.80;;;20.30;61.90;;;;;;351238;28;2522;-57
2023/10/19 00:45:15;;;;;;;9.73;1.88;;;20.30;62.10;;;;;;351311;28;1031;-58
2023/10/19 00:45:27;;;;;;;9.40;1.90;;;20.30;62.10;;;;;;351282;28;1600;-58
2023/10/19 00:45:41;;;;;;;9.55;1.80;;;20.30;62.10;;;;;;351200;28;1138;-57
2023/10/19 00:45:52;;;;;;;7.07;1.80;;;20.30;62.00;;;;;;351271;28;1012;-58
2023/10/19 00:46:14;;;;;;;7.60;1.90;;;20.30;62.00;;;;;;351360;28;1070;-57
2023/10/19 00:46:43;;;;;;;6.82;1.92;;;20.30;62.00;;;;;;351253;28;996;-57
2023/10/19 00:47:03;;;;;;;7.90;1.92;;;20.30;62.10;;;;;;351247;28;1110;-57
2023/10/19 00:47:18;;;;;;;7.90;2.60;;;20.30;62.00;;;;;;351288;28;944;-58
2023/10/19 00:47:38;;;;;;;7.60;2.70;;;20.30;61.90;;;;;;351167;28;1078;-58
2023/10/19 00:47:49;;;;;;;6.90;2.08;;;20.30;62.00;;;;;;351293;28;924;-57
2023/10/19 00:48:00;;;;;;;7.30;2.17;;;20.30;62.00;;;;;;351314;28;1065;-58
2023/10/19 00:48:11;;;;;;;6.70;2.28;;;20.30;62.00;;;;;;351279;28;884;-58
2023/10/19 00:48:26;;;;;;;6.45;2.15;;;20.30;62.00;;;;;;351194;28;999;-57
2023/10/19 00:48:40;;;;;;;4.82;1.83;;;20.30;62.00;;;;;;351234;28;1106;-57
2023/10/19 00:48:57;;;;;;;6.50;1.88;;;20.30;62.10;;;;;;351230;28;1035;-57
2023/10/19 00:49:12;;;;;;;7.50;1.85;;;20.20;62.10;;;;;;351157;28;1835;-58
2023/10/19 00:49:23;;;;;;;5.90;1.80;;;20.20;62.10;;;;;;351264;28;999;-58
2023/10/19 00:49:34;;;;;;;6.20;1.90;;;20.30;62.10;;;;;;351270;28;1058;-58
2023/10/19 00:49:46;;;;;;;6.43;1.80;;;20.30;62.10;;;;;;351274;28;1500;-58
2023/10/19 00:50:02;;;;;;;7.03;1.70;;;20.30;62.10;;;;;;351190;28;1005;-58
2023/10/19 00:50:17;;;;;;;6.70;1.80;;;20.30;62.10;;;;;;351256;28;1122;-57
2023/10/19 00:50:30;;;;;;;6.45;2.58;;;20.20;62.10;;;;;;351294;28;995;-58
2023/10/19 00:50:43;;;;;;;7.80;2.90;;;20.20;62.10;;;;;;351259;28;1015;-58
2023/10/19 00:51:06;;;;;;;8.30;2.72;;;20.20;62.20;;;;;;351229;28;1022;-58
2023/10/19 00:52:02;;;;;;;7.15;1.98;;;20.20;62.30;;;;;;351212;28;849;-57
2023/10/19 00:52:23;;;;;;;6.32;1.80;;;20.20;62.20;;;;;;351153;28;987;-57
2023/10/19 00:52:43;;;;;;;7.00;2.13;;;20.20;62.20;;;;;;351258;28;1865;-58
2023/10/19 00:52:57;;;;;;;7.15;2.03;;;20.20;62.30;;;;;;351253;28;1879;-58
2023/10/19 00:53:12;;;;;;;7.55;1.83;;;20.30;62.40;;;;;;351159;28;1153;-58
2023/10/19 00:53:23;;;;;;;8.20;2.05;;;20.30;62.40;;;;;;351221;28;1201;-58
2023/10/19 00:53:36;;;;;;;11.18;2.40;;;20.20;62.40;;;;;;351189;28;1138;-58
2023/10/19 00:53:48;;;;;;;11.10;2.40;;;20.20;62.50;;;;;;351289;28;895;-57
2023/10/19 00:54:10;;;;;;;8.68;2.10;;;20.20;62.40;;;;;;351251;28;1015;-57
2023/10/19 00:54:33;;;;;;;7.24;2.00;;;20.20;62.40;;;;;;351143;28;1071;-59
2023/10/19 00:54:58;;;;;;;6.97;2.55;;;20.30;62.40;;;;;;351178;28;1046;-58
2023/10/19 00:55:12;;;;;;;7.15;2.33;;;20.30;62.40;;;;;;351320;28;915;-58
2023/10/19 00:55:26;;;;;;;6.68;2.00;;;20.30;62.50;;;;;;351163;28;1122;-57
2023/10/19 00:55:36;;;;;;;6.97;2.00;;;20.30;62.50;;;;;;351257;28;872;-57
2023/10/19 00:55:47;;;;;;;8.13;2.00;;;20.30;62.50;;;;;;351187;28;1006;-57
2023/10/19 00:56:00;;;;;;;7.50;2.05;;;20.30;62.60;;;;;;351295;28;848;-59
2023/10/19 00:56:11;;;;;;;5.90;1.90;;;20.30;62.50;;;;;;351163;28;1125;-57
2023/10/19 00:56:23;;;;;;;6.07;2.00;;;20.30;62.30;;;;;;351299;28;1010;-58
2023/10/19 00:56:35;;;;;;;6.53;1.80;;;20.30;62.30;;;;;;351232;28;1216;-57
2023/10/19 00:56:55;;;;;;;6.82;1.90;;;20.30;62.30;;;;;;351096;28;1469;-58
2023/10/19 00:57:12;;;;;;;6.22;2.00;;;20.30;62.30;;;;;;351200;28;1197;-58
2023/10/19 00:57:33;;;;;;;6.90;1.90;;;20.30;62.30;;;;;;351143;28;996;-59
2023/10/19 00:57:48;;;;;;;7.80;2.20;;;20.30;62.30;;;;;;351168;28;2010;-58
2023/10/19 00:58:03;;;;;;;6.30;2.10;;;20.30;62.40;;;;;;351260;28;934;-57
2023/10/19 00:58:18;;;;;;;6.35;2.35;;;20.30;62.30;;;;;;351264;28;1094;-58
2023/10/19 00:58:29;;;;;;;6.35;2.30;;;20.30;62.30;;;;;;351180;28;1121;-58
2023/10/19 00:58:41;;;;;;;6.22;2.30;;;20.30;62.30;;;;;;351285;28;1110;-58
2023/10/19 00:58:55;;;;;;;6.38;2.05;;;20.30;62.30;;;;;;351282;28;1090;-58
2023/10/19 00:59:14;;;;;;;6.15;1.90;;;20.30;62.30;;;;;;351106;28;1944;-57
2023/10/19 00:59:30;;;;;;;6.95;2.03;;;20.30;62.20;;;;;;351266;28;912;-57
2023/10/19 00:59:49;;;;;;;7.43;2.00;;;20.30;62.30;;;;;;351291;28;896;-57
2023/10/19 01:00:21;;;;;;;7.72;2.20;;;20.30;62.30;;;;;;351235;28;1022;-57
2023/10/19 01:00:35;;;;;;;7.43;2.17;;;20.30;62.30;;;;;;351241;28;1019;-57
2023/10/19 01:00:49;;;;;;;6.43;2.00;;;20.30;62.40;;;;;;351173;28;1032;-58
2023/10/19 01:01:00;;;;;;;6.45;1.80;;;20.30;62.30;;;;;;351247;28;1070;-57
2023/10/19 01:01:11;;;;;;;7.20;1.80;;;20.30;62.30;;;;;;351277;28;927;-58
2023/10/19 01:01:27;;;;;;;7.68;1.83;;;20.40;62.40;;;;;;351177;28;1122;-58
2023/10/19 01:01:43;;;;;;;7.65;1.80;;;20.30;62.30;;;;;;351250;28;1205;-58
2023/10/19 01:01:57;;;;;;;7.82;2.00;;;20.30;62.20;;;;;;351278;28;1106;-58
2023/10/19 01:02:17;;;;;;;6.88;1.95;;;20.30;62.20;;;;;;351261;28;1146;-56
2023/10/19 01:02:29;;;;;;;6.55;1.80;;;20.30;62.20;;;;;;351213;28;1003;-58
2023/10/19 01:02:46;;;;;;;5.63;1.80;;;20.40;62.30;;;;;;351113;28;1238;-58
2023/10/19 01:02:59;;;;;;;6.18;1.90;;;20.40;62.30;;;;;;351149;28;884;-58
2023/10/19 01:03:16;;;;;;;6.65;2.05;;;20.40;62.20;;;;;;351113;28;1142;-58
2023/10/19 01:03:32;;;;;;;7.65;2.05;;;20.40;62.20;;;;;;351134;28;1409;-58
2023/10/19 01:03:44;;;;;;;8.23;2.25;;;20.40;62.20;;;;;;351172;28;975;-58
2023/10/19 01:03:58;;;;;;;7.03;2.30;;;20.40;62.20;;;;;;350990;28;1687;-58
2023/10/19 01:04:14;;;;;;;7.10;2.15;;;20.40;62.20;;;;;;351066;28;1323;-57
2023/10/19 01:04:31;;;;;;;7.25;1.98;;;20.40;62.10;;;;;;351168;28;1269;-58
2023/10/19 01:04:56;;;;;;;7.05;1.92;;;20.40;62.00;;;;;;351236;28;1209;-58
2023/10/19 01:05:07;;;;;;;6.88;2.13;;;20.40;62.00;;;;;;351292;28;847;-57
2023/10/19 01:05:21;;;;;;;7.50;2.13;;;20.40;61.90;;;;;;351112;28;1319;-57
2023/10/19 01:05:35;;;;;;;7.85;1.95;;;20.40;62.00;;;;;;351308;28;903;-58
2023/10/19 01:05:49;;;;;;;7.35;1.95;;;20.40;62.00;;;;;;351153;28;999;-57
2023/10/19 01:06:00;;;;;;;7.85;1.92;;;20.40;61.90;;;;;;351255;28;1118;-58
2023/10/19 01:06:12;;;;;;;7.13;1.70;;;20.40;62.00;;;;;;351226;28;1069;-57
2023/10/19 01:06:25;;;;;;;6.72;1.77;;;20.40;62.00;;;;;;351243;28;1066;-58
2023/10/19 01:06:35;;;;;;;5.85;1.67;;;20.40;62.00;;;;;;351128;28;1864;-58
2023/10/19 01:07:00;;;;;;;5.78;1.70;;;20.40;62.00;;;;;;351227;28;1086;-58
2023/10/19 01:07:15;;;;;;;5.35;1.70;;;20.40;62.00;;;;;;351250;28;968;-57
2023/10/19 01:07:28;;;;;;;5.82;1.73;;;20.40;61.90;;;;;;351190;28;1234;-58
2023/10/19 01:07:40;;;;;;;7.02;2.00;;;20.40;61.80;;;;;;351261;28;1065;-58
2023/10/19 01:07:57;;;;;;;6.10;1.85;;;20.40;61.90;;;;;;351157;28;935;-57
2023/10/19 01:08:23;;;;;;;5.63;1.55;;;20.40;61.80;;;;;;351234;28;1099;-58
2023/10/19 01:08:41;;;;;;;5.45;1.58;;;20.40;61.90;;;;;;351204;28;1479;-58
2023/10/19 01:08:53;;;;;;;5.97;1.55;;;20.50;61.90;;;;;;351203;28;1054;-57
2023/10/19 01:09:04;;;;;;;6.60;1.80;;;20.40;61.80;;;;;;351308;28;935;-57
2023/10/19 01:09:14;;;;;;;6.88;1.80;;;20.50;61.80;;;;;;351170;28;1058;-57
2023/10/19 01:09:27;;;;;;;6.75;1.80;;;20.40;61.70;;;;;;351242;28;1019;-57
2023/10/19 01:09:39;;;;;;;6.55;1.70;;;20.50;61.70;;;;;;351217;28;979;-57
2023/10/19 01:09:53;;;;;;;7.43;1.77;;;20.40;61.60;;;;;;351252;28;960;-58
2023/10/19 01:10:13;;;;;;;7.63;1.70;;;20.50;61.70;;;;;;351198;28;1078;-57
2023/10/19 01:10:24;;;;;;;7.93;1.90;;;20.40;61.70;;;;;;351177;28;1066;-58
2023/10/19 01:10:35;;;;;;;7.43;1.80;;;20.40;61.70;;;;;;351288;28;907;-57
2023/10/19 01:10:51;;;;;;;7.75;1.77;;;20.40;61.80;;;;;;351178;28;916;-58
2023/10/19 01:11:04;;;;;;;8.07;1.95;;;20.50;61.90;;;;;;351260;28;1059;-57
2023/10/19 01:11:15;;;;;;;8.60;2.10;;;20.50;61.90;;;;;;351191;28;1065;-57
2023/10/19 01:11:28;;;;;;;8.70;2.13;;;20.40;61.90;;;;;;351217;28;1216;-58
2023/10/19 01:11:41;;;;;;;7.07;1.90;;;20.40;62.00;;;;;;351237;28;836;-58
2023/10/19 01:11:52;;;;;;;7.95;1.90;;;20.40;62.00;;;;;;351171;28;927;-58
2023/10/19 01:12:52;;;;;;;5.40;1.63;;;20.40;62.00;;;;;;349615;28;1054;-57
2023/10/19 01:13:05;;;;;;;5.43;1.60;;;20.50;61.60;;;;;;349589;28;1612;-58
2023/10/19 01:13:16;;;;;;;6.10;1.70;;;20.40;61.70;;;;;;349579;28;1074;-57
2023/10/19 01:13:27;;;;;;;6.57;1.80;;;20.40;61.60;;;;;;349626;28;1303;-58
2023/10/19 01:13:38;;;;;;;7.73;1.80;;;20.40;61.60;;;;;;349678;28;1022;-57
2023/10/19 01:13:51;;;;;;;7.35;1.75;;;20.40;61.60;;;;;;349589;28;944;-57
2023/10/19 01:14:19;;;;;;;6.53;1.83;;;20.40;61.70;;;;;;349674;28;1090;-57
2023/10/19 01:14:29;;;;;;;6.15;1.80;;;20.40;61.80;;;;;;349577;28;1112;-57
2023/10/19 01:14:40;;;;;;;6.67;1.80;;;20.40;61.80;;;;;;349730;28;1066;-57
2023/10/19 01:15:39;;;;;;;6.20;1.83;;;20.40;61.80;;;;;;342862;28;1092;-57
2023/10/19 01:15:49;;;;;;;6.20;2.00;;;20.40;61.80;;;;;;342695;28;1460;-57
2023/10/19 01:16:00;;;;;;;5.85;1.90;;;20.40;61.80;;;;;;348777;28;1258;-57
2023/10/19 01:16:21;;;;;;;6.73;1.90;;;20.40;61.80;;;;;;349596;28;1600;-58
2023/10/19 01:16:31;;;;;;;10.13;2.22;;;20.40;61.90;;;;;;349599;28;1688;-57
2023/10/19 01:16:43;;;;;;;8.40;2.20;;;20.40;61.80;;;;;;349669;28;1781;-57
2023/10/19 01:16:57;;;;;;;7.78;2.33;;;20.40;61.80;;;;;;349589;28;995;-57
2023/10/19 01:17:11;;;;;;;6.80;2.30;;;20.40;61.90;;;;;;349569;28;1487;-57
2023/10/19 01:17:22;;;;;;;7.70;2.05;;;20.40;61.90;;;;;;349565;28;1055;-58
2023/10/19 01:17:39;;;;;;;6.97;1.88;;;20.40;62.00;;;;;;349596;28;1670;-58
2023/10/19 01:17:52;;;;;;;5.43;1.80;;;20.40;62.10;;;;;;349571;28;1057;-57
2023/10/19 01:18:04;;;;;;;5.63;1.83;;;20.40;62.10;;;;;;349690;28;914;-57
2023/10/19 01:18:16;;;;;;;4.80;1.70;;;20.40;62.10;;;;;;349603;28;916;-58
2023/10/19 01:18:29;;;;;;;4.82;1.60;;;20.40;62.00;;;;;;349673;28;1202;-57
2023/10/19 01:18:42;;;;;;;5.22;1.67;;;20.40;62.00;;;;;;349572;28;997;-57
2023/10/19 01:18:53;;;;;;;6.82;1.92;;;20.40;62.00;;;;;;349762;28;1265;-58
2023/10/19 01:19:06;;;;;;;8.27;2.20;;;20.40;61.90;;;;;;351129;28;2657;-58
2023/10/19 01:19:18;;;;;;;8.05;2.08;;;20.40;61.90;;;;;;351195;28;919;-57
2023/10/19 01:19:29;;;;;;;7.25;1.98;;;20.40;61.90;;;;;;351160;28;1204;-57
2023/10/19 01:19:41;;;;;;;6.90;1.90;;;20.40;61.90;;;;;;351207;28;1013;-58
2023/10/19 01:19:52;;;;;;;8.05;2.10;;;20.40;61.90;;;;;;351176;28;1282;-57
2023/10/19 01:20:16;;;;;;;7.60;1.98;;;20.40;61.90;;;;;;351221;28;1054;-57
2023/10/19 01:20:50;;;;;;;8.75;1.90;;;20.40;61.90;;;;;;351095;28;1197;-57
2023/10/19 01:21:06;;;;;;;7.97;2.08;;;20.40;61.90;;;;;;351195;28;999;-57
2023/10/19 01:21:21;;;;;;;6.75;2.03;;;20.40;61.80;;;;;;351195;28;1261;-57
2023/10/19 01:21:38;;;;;;;7.03;1.95;;;20.50;61.70;;;;;;351230;28;1188;-58
2023/10/19 01:21:58;;;;;;;7.60;2.00;;;20.40;61.60;;;;;;351145;28;1197;-57